sensor_id;sensor_type;location;lat;lon;timestamp;P1;durP1;ratioP1;P2;durP2;ratioP2
42724;SDS011;28369;44.046;23.014;2023-03-24T00:01:52;57.75;;;41.55;;
42724;SDS011;28369;44.046;23.014;2023-03-24T00:04:18;61.08;;;44.45;;
42724;SDS011;28369;44.046;23.014;2023-03-24T00:06:45;62.75;;;45.90;;
42724;SDS011;28369;44.046;23.014;2023-03-24T00:09:13;67.07;;;46.60;;
42724;SDS011;28369;44.046;23.014;2023-03-24T00:11:40;71.35;;;47.90;;
42724;SDS011;28369;44.046;23.014;2023-03-24T00:14:05;68.47;;;48.33;;
42724;SDS011;28369;44.046;23.014;2023-03-24T00:16:31;69.20;;;48.10;;
42724;SDS011;28369;44.046;23.014;2023-03-24T00:18:59;69.30;;;46.58;;
42724;SDS011;28369;44.046;23.014;2023-03-24T00:21:25;65.35;;;45.70;;
42724;SDS011;28369;44.046;23.014;2023-03-24T00:23:51;64.90;;;45.72;;
42724;SDS011;28369;44.046;23.014;2023-03-24T00:26:19;62.53;;;44.47;;
42724;SDS011;28369;44.046;23.014;2023-03-24T00:28:46;55.83;;;41.85;;
42724;SDS011;28369;44.046;23.014;2023-03-24T00:31:13;59.80;;;43.78;;
42724;SDS011;28369;44.046;23.014;2023-03-24T00:33:41;59.75;;;41.42;;
42724;SDS011;28369;44.046;23.014;2023-03-24T00:36:08;58.75;;;44.22;;
42724;SDS011;28369;44.046;23.014;2023-03-24T00:38:38;62.58;;;42.75;;
42724;SDS011;28369;44.046;23.014;2023-03-24T00:41:05;65.57;;;43.83;;
42724;SDS011;28369;44.046;23.014;2023-03-24T00:43:32;58.25;;;43.05;;
42724;SDS011;28369;44.046;23.014;2023-03-24T00:46:03;57.50;;;41.58;;
42724;SDS011;28369;44.046;23.014;2023-03-24T00:48:32;53.45;;;40.47;;
42724;SDS011;28369;44.046;23.014;2023-03-24T00:50:59;52.78;;;39.30;;
42724;SDS011;28369;44.046;23.014;2023-03-24T00:53:27;47.50;;;35.47;;
42724;SDS011;28369;44.046;23.014;2023-03-24T00:55:53;43.15;;;32.55;;
42724;SDS011;28369;44.046;23.014;2023-03-24T00:58:19;56.45;;;36.30;;
42724;SDS011;28369;44.046;23.014;2023-03-24T01:00:49;48.08;;;34.03;;
42724;SDS011;28369;44.046;23.014;2023-03-24T01:03:17;46.83;;;33.00;;
42724;SDS011;28369;44.046;23.014;2023-03-24T01:05:46;42.42;;;32.78;;
42724;SDS011;28369;44.046;23.014;2023-03-24T01:08:12;44.72;;;34.15;;
42724;SDS011;28369;44.046;23.014;2023-03-24T01:10:39;44.92;;;33.72;;
42724;SDS011;28369;44.046;23.014;2023-03-24T01:13:20;48.35;;;35.95;;
42724;SDS011;28369;44.046;23.014;2023-03-24T01:15:55;47.13;;;33.53;;
42724;SDS011;28369;44.046;23.014;2023-03-24T01:18:21;50.35;;;36.78;;
42724;SDS011;28369;44.046;23.014;2023-03-24T01:20:51;47.58;;;35.28;;
42724;SDS011;28369;44.046;23.014;2023-03-24T01:23:19;46.78;;;35.90;;
42724;SDS011;28369;44.046;23.014;2023-03-24T01:25:47;53.47;;;38.45;;
42724;SDS011;28369;44.046;23.014;2023-03-24T01:28:15;52.78;;;38.00;;
42724;SDS011;28369;44.046;23.014;2023-03-24T01:30:43;53.08;;;38.10;;
42724;SDS011;28369;44.046;23.014;2023-03-24T01:33:09;52.47;;;37.92;;
42724;SDS011;28369;44.046;23.014;2023-03-24T01:35:34;55.55;;;39.70;;
42724;SDS011;28369;44.046;23.014;2023-03-24T01:38:05;52.03;;;39.20;;
42724;SDS011;28369;44.046;23.014;2023-03-24T01:40:32;57.40;;;39.30;;
42724;SDS011;28369;44.046;23.014;2023-03-24T01:42:59;56.50;;;39.22;;
42724;SDS011;28369;44.046;23.014;2023-03-24T01:48:14;52.22;;;39.33;;
42724;SDS011;28369;44.046;23.014;2023-03-24T01:51:11;54.70;;;40.35;;
42724;SDS011;28369;44.046;23.014;2023-03-24T01:53:44;50.47;;;38.33;;
42724;SDS011;28369;44.046;23.014;2023-03-24T01:56:17;51.20;;;35.17;;
42724;SDS011;28369;44.046;23.014;2023-03-24T01:58:45;52.33;;;36.65;;
42724;SDS011;28369;44.046;23.014;2023-03-24T02:01:14;53.45;;;37.58;;
42724;SDS011;28369;44.046;23.014;2023-03-24T02:03:41;60.53;;;39.42;;
42724;SDS011;28369;44.046;23.014;2023-03-24T02:06:08;56.42;;;40.47;;
42724;SDS011;28369;44.046;23.014;2023-03-24T02:08:49;56.92;;;40.60;;
42724;SDS011;28369;44.046;23.014;2023-03-24T02:11:19;52.90;;;39.15;;
42724;SDS011;28369;44.046;23.014;2023-03-24T02:13:45;50.55;;;37.97;;
42724;SDS011;28369;44.046;23.014;2023-03-24T02:18:59;46.47;;;33.65;;
42724;SDS011;28369;44.046;23.014;2023-03-24T02:40:44;47.25;;;32.78;;
42724;SDS011;28369;44.046;23.014;2023-03-24T02:54:13;48.55;;;33.65;;
42724;SDS011;28369;44.046;23.014;2023-03-24T02:57:04;49.25;;;34.13;;
42724;SDS011;28369;44.046;23.014;2023-03-24T03:02:38;56.10;;;40.47;;
42724;SDS011;28369;44.046;23.014;2023-03-24T03:05:16;60.45;;;39.10;;
42724;SDS011;28369;44.046;23.014;2023-03-24T03:07:46;55.45;;;38.40;;
42724;SDS011;28369;44.046;23.014;2023-03-24T03:10:16;55.55;;;39.35;;
42724;SDS011;28369;44.046;23.014;2023-03-24T03:12:47;55.45;;;36.22;;
42724;SDS011;28369;44.046;23.014;2023-03-24T03:15:18;55.90;;;37.80;;
42724;SDS011;28369;44.046;23.014;2023-03-24T03:17:50;50.30;;;35.22;;
42724;SDS011;28369;44.046;23.014;2023-03-24T03:20:20;47.20;;;34.28;;
42724;SDS011;28369;44.046;23.014;2023-03-24T03:22:52;46.08;;;33.00;;
42724;SDS011;28369;44.046;23.014;2023-03-24T03:25:26;44.88;;;33.53;;
42724;SDS011;28369;44.046;23.014;2023-03-24T03:27:57;48.40;;;34.55;;
42724;SDS011;28369;44.046;23.014;2023-03-24T03:31:00;50.15;;;35.55;;
42724;SDS011;28369;44.046;23.014;2023-03-24T03:33:22;48.90;;;32.70;;
42724;SDS011;28369;44.046;23.014;2023-03-24T03:41:51;46.08;;;32.85;;
42724;SDS011;28369;44.046;23.014;2023-03-24T03:44:17;44.83;;;33.47;;
42724;SDS011;28369;44.046;23.014;2023-03-24T03:46:42;54.20;;;35.95;;
42724;SDS011;28369;44.046;23.014;2023-03-24T03:49:08;55.45;;;38.65;;
42724;SDS011;28369;44.046;23.014;2023-03-24T03:51:34;55.38;;;37.00;;
42724;SDS011;28369;44.046;23.014;2023-03-24T03:54:04;59.20;;;38.80;;
42724;SDS011;28369;44.046;23.014;2023-03-24T03:56:33;52.50;;;36.97;;
42724;SDS011;28369;44.046;23.014;2023-03-24T03:59:00;56.85;;;38.17;;
42724;SDS011;28369;44.046;23.014;2023-03-24T04:01:28;54.97;;;36.20;;
42724;SDS011;28369;44.046;23.014;2023-03-24T04:06:38;50.70;;;35.00;;
42724;SDS011;28369;44.046;23.014;2023-03-24T04:15:08;53.35;;;34.88;;
42724;SDS011;28369;44.046;23.014;2023-03-24T04:17:49;47.80;;;33.88;;
42724;SDS011;28369;44.046;23.014;2023-03-24T04:20:23;47.40;;;33.50;;
42724;SDS011;28369;44.046;23.014;2023-03-24T04:23:06;53.90;;;34.45;;
42724;SDS011;28369;44.046;23.014;2023-03-24T04:31:25;44.38;;;32.33;;
42724;SDS011;28369;44.046;23.014;2023-03-24T04:33:59;54.70;;;34.42;;
42724;SDS011;28369;44.046;23.014;2023-03-24T04:36:33;53.72;;;36.35;;
42724;SDS011;28369;44.046;23.014;2023-03-24T04:39:08;59.38;;;40.10;;
42724;SDS011;28369;44.046;23.014;2023-03-24T04:41:37;57.30;;;40.17;;
42724;SDS011;28369;44.046;23.014;2023-03-24T04:44:04;53.88;;;37.17;;
42724;SDS011;28369;44.046;23.014;2023-03-24T04:46:30;51.80;;;37.42;;
42724;SDS011;28369;44.046;23.014;2023-03-24T04:48:56;54.17;;;37.05;;
42724;SDS011;28369;44.046;23.014;2023-03-24T04:51:22;48.58;;;35.25;;
42724;SDS011;28369;44.046;23.014;2023-03-24T04:53:48;50.25;;;34.80;;
42724;SDS011;28369;44.046;23.014;2023-03-24T04:56:24;48.75;;;35.85;;
42724;SDS011;28369;44.046;23.014;2023-03-24T04:58:57;58.22;;;44.58;;
42724;SDS011;28369;44.046;23.014;2023-03-24T05:01:23;46.47;;;34.78;;
42724;SDS011;28369;44.046;23.014;2023-03-24T05:03:53;42.13;;;30.65;;
42724;SDS011;28369;44.046;23.014;2023-03-24T05:06:19;39.53;;;29.63;;
42724;SDS011;28369;44.046;23.014;2023-03-24T05:08:45;41.22;;;31.60;;
42724;SDS011;28369;44.046;23.014;2023-03-24T05:11:11;66.97;;;46.25;;
42724;SDS011;28369;44.046;23.014;2023-03-24T05:13:37;59.08;;;41.28;;
42724;SDS011;28369;44.046;23.014;2023-03-24T05:16:02;41.60;;;33.45;;
42724;SDS011;28369;44.046;23.014;2023-03-24T05:18:28;44.78;;;30.63;;
42724;SDS011;28369;44.046;23.014;2023-03-24T05:20:53;38.67;;;31.65;;
42724;SDS011;28369;44.046;23.014;2023-03-24T05:23:19;49.13;;;38.88;;
42724;SDS011;28369;44.046;23.014;2023-03-24T05:25:45;42.63;;;34.17;;
42724;SDS011;28369;44.046;23.014;2023-03-24T05:28:11;51.15;;;41.05;;
42724;SDS011;28369;44.046;23.014;2023-03-24T05:30:37;68.25;;;41.85;;
42724;SDS011;28369;44.046;23.014;2023-03-24T05:33:02;89.10;;;55.25;;
42724;SDS011;28369;44.046;23.014;2023-03-24T05:35:28;83.40;;;60.90;;
42724;SDS011;28369;44.046;23.014;2023-03-24T05:37:54;64.85;;;47.80;;
42724;SDS011;28369;44.046;23.014;2023-03-24T05:40:20;57.25;;;43.63;;
42724;SDS011;28369;44.046;23.014;2023-03-24T05:42:47;48.50;;;38.80;;
42724;SDS011;28369;44.046;23.014;2023-03-24T05:45:14;42.55;;;32.70;;
42724;SDS011;28369;44.046;23.014;2023-03-24T05:47:40;39.65;;;30.25;;
42724;SDS011;28369;44.046;23.014;2023-03-24T05:50:05;38.65;;;29.30;;
42724;SDS011;28369;44.046;23.014;2023-03-24T05:52:31;36.65;;;28.05;;
42724;SDS011;28369;44.046;23.014;2023-03-24T05:54:57;40.13;;;30.50;;
42724;SDS011;28369;44.046;23.014;2023-03-24T05:57:23;38.67;;;29.05;;
42724;SDS011;28369;44.046;23.014;2023-03-24T05:59:48;42.00;;;31.02;;
42724;SDS011;28369;44.046;23.014;2023-03-24T06:02:14;37.83;;;30.17;;
42724;SDS011;28369;44.046;23.014;2023-03-24T06:04:39;49.17;;;35.40;;
42724;SDS011;28369;44.046;23.014;2023-03-24T06:07:10;52.53;;;39.95;;
42724;SDS011;28369;44.046;23.014;2023-03-24T06:09:36;46.08;;;37.15;;
42724;SDS011;28369;44.046;23.014;2023-03-24T06:12:02;43.83;;;33.42;;
42724;SDS011;28369;44.046;23.014;2023-03-24T06:14:28;38.55;;;31.67;;
42724;SDS011;28369;44.046;23.014;2023-03-24T06:16:53;41.15;;;31.63;;
42724;SDS011;28369;44.046;23.014;2023-03-24T06:19:23;44.83;;;34.15;;
42724;SDS011;28369;44.046;23.014;2023-03-24T06:21:54;43.65;;;33.45;;
42724;SDS011;28369;44.046;23.014;2023-03-24T06:24:26;45.78;;;35.50;;
42724;SDS011;28369;44.046;23.014;2023-03-24T06:26:53;41.58;;;33.80;;
42724;SDS011;28369;44.046;23.014;2023-03-24T06:29:26;38.85;;;32.45;;
42724;SDS011;28369;44.046;23.014;2023-03-24T06:31:55;38.58;;;31.15;;
42724;SDS011;28369;44.046;23.014;2023-03-24T06:34:21;39.75;;;31.83;;
42724;SDS011;28369;44.046;23.014;2023-03-24T06:36:49;45.78;;;35.78;;
42724;SDS011;28369;44.046;23.014;2023-03-24T06:39:14;41.17;;;33.47;;
42724;SDS011;28369;44.046;23.014;2023-03-24T06:41:40;43.28;;;33.95;;
42724;SDS011;28369;44.046;23.014;2023-03-24T06:44:06;55.92;;;41.30;;
42724;SDS011;28369;44.046;23.014;2023-03-24T06:46:31;38.63;;;32.85;;
42724;SDS011;28369;44.046;23.014;2023-03-24T06:48:57;41.75;;;32.00;;
42724;SDS011;28369;44.046;23.014;2023-03-24T06:51:22;40.20;;;32.72;;
42724;SDS011;28369;44.046;23.014;2023-03-24T06:53:48;42.22;;;32.45;;
42724;SDS011;28369;44.046;23.014;2023-03-24T06:56:13;40.38;;;31.33;;
42724;SDS011;28369;44.046;23.014;2023-03-24T06:58:42;41.90;;;29.65;;
42724;SDS011;28369;44.046;23.014;2023-03-24T07:01:08;39.97;;;32.60;;
42724;SDS011;28369;44.046;23.014;2023-03-24T07:03:33;33.47;;;29.75;;
42724;SDS011;28369;44.046;23.014;2023-03-24T07:06:00;34.70;;;27.98;;
42724;SDS011;28369;44.046;23.014;2023-03-24T07:08:38;32.28;;;28.02;;
42724;SDS011;28369;44.046;23.014;2023-03-24T07:11:04;34.63;;;28.52;;
42724;SDS011;28369;44.046;23.014;2023-03-24T07:13:32;35.53;;;27.15;;
42724;SDS011;28369;44.046;23.014;2023-03-24T07:16:04;35.55;;;28.23;;
42724;SDS011;28369;44.046;23.014;2023-03-24T07:18:44;34.38;;;29.63;;
42724;SDS011;28369;44.046;23.014;2023-03-24T07:21:10;31.52;;;26.90;;
42724;SDS011;28369;44.046;23.014;2023-03-24T07:23:36;40.20;;;28.40;;
42724;SDS011;28369;44.046;23.014;2023-03-24T07:26:04;33.90;;;28.02;;
42724;SDS011;28369;44.046;23.014;2023-03-24T07:28:32;34.17;;;28.70;;
42724;SDS011;28369;44.046;23.014;2023-03-24T07:31:00;32.75;;;28.40;;
42724;SDS011;28369;44.046;23.014;2023-03-24T07:33:27;34.00;;;28.17;;
42724;SDS011;28369;44.046;23.014;2023-03-24T07:45:04;37.03;;;28.52;;
42724;SDS011;28369;44.046;23.014;2023-03-24T07:50:55;33.92;;;29.08;;
42724;SDS011;28369;44.046;23.014;2023-03-24T07:56:46;30.92;;;27.55;;
42724;SDS011;28369;44.046;23.014;2023-03-24T08:02:37;34.90;;;27.75;;
42724;SDS011;28369;44.046;23.014;2023-03-24T08:55:27;22.45;;;18.52;;
42724;SDS011;28369;44.046;23.014;2023-03-24T09:07:24;20.05;;;17.73;;
42724;SDS011;28369;44.046;23.014;2023-03-24T09:12:45;19.75;;;17.75;;
42724;SDS011;28369;44.046;23.014;2023-03-24T09:15:12;20.60;;;17.73;;
42724;SDS011;28369;44.046;23.014;2023-03-24T09:17:38;28.08;;;22.05;;
42724;SDS011;28369;44.046;23.014;2023-03-24T09:20:05;16.95;;;13.82;;
42724;SDS011;28369;44.046;23.014;2023-03-24T09:22:39;20.35;;;16.92;;
42724;SDS011;28369;44.046;23.014;2023-03-24T09:25:08;19.17;;;16.83;;
42724;SDS011;28369;44.046;23.014;2023-03-24T09:27:36;18.23;;;16.20;;
42724;SDS011;28369;44.046;23.014;2023-03-24T09:30:02;20.08;;;17.92;;
42724;SDS011;28369;44.046;23.014;2023-03-24T09:32:28;21.60;;;17.35;;
42724;SDS011;28369;44.046;23.014;2023-03-24T09:34:54;19.65;;;17.55;;
42724;SDS011;28369;44.046;23.014;2023-03-24T09:37:20;22.55;;;17.45;;
42724;SDS011;28369;44.046;23.014;2023-03-24T09:39:45;19.02;;;16.70;;
42724;SDS011;28369;44.046;23.014;2023-03-24T09:42:18;19.20;;;14.90;;
42724;SDS011;28369;44.046;23.014;2023-03-24T09:44:50;18.08;;;15.65;;
42724;SDS011;28369;44.046;23.014;2023-03-24T09:47:33;18.83;;;16.52;;
42724;SDS011;28369;44.046;23.014;2023-03-24T09:50:17;27.35;;;17.10;;
42724;SDS011;28369;44.046;23.014;2023-03-24T09:52:48;20.63;;;15.90;;
42724;SDS011;28369;44.046;23.014;2023-03-24T09:55:21;18.20;;;16.40;;
42724;SDS011;28369;44.046;23.014;2023-03-24T09:57:50;17.75;;;15.88;;
42724;SDS011;28369;44.046;23.014;2023-03-24T10:00:18;21.00;;;15.80;;
42724;SDS011;28369;44.046;23.014;2023-03-24T10:02:46;18.85;;;15.00;;
42724;SDS011;28369;44.046;23.014;2023-03-24T10:05:34;19.67;;;14.70;;
42724;SDS011;28369;44.046;23.014;2023-03-24T10:10:37;16.50;;;14.30;;
42724;SDS011;28369;44.046;23.014;2023-03-24T10:13:24;15.52;;;13.90;;
42724;SDS011;28369;44.046;23.014;2023-03-24T10:16:05;19.55;;;14.65;;
42724;SDS011;28369;44.046;23.014;2023-03-24T10:21:20;18.70;;;14.38;;
42724;SDS011;28369;44.046;23.014;2023-03-24T10:23:52;15.50;;;13.82;;
42724;SDS011;28369;44.046;23.014;2023-03-24T10:26:45;14.90;;;13.40;;
42724;SDS011;28369;44.046;23.014;2023-03-24T10:29:33;16.17;;;13.65;;
42724;SDS011;28369;44.046;23.014;2023-03-24T10:32:04;13.82;;;12.30;;
42724;SDS011;28369;44.046;23.014;2023-03-24T10:34:36;16.58;;;11.70;;
42724;SDS011;28369;44.046;23.014;2023-03-24T10:37:04;15.10;;;12.07;;
42724;SDS011;28369;44.046;23.014;2023-03-24T10:39:30;18.05;;;12.23;;
42724;SDS011;28369;44.046;23.014;2023-03-24T10:41:57;14.88;;;11.10;;
42724;SDS011;28369;44.046;23.014;2023-03-24T10:44:23;13.77;;;10.00;;
42724;SDS011;28369;44.046;23.014;2023-03-24T10:46:51;12.25;;;10.52;;
42724;SDS011;28369;44.046;23.014;2023-03-24T10:49:19;12.07;;;10.13;;
42724;SDS011;28369;44.046;23.014;2023-03-24T10:51:59;12.52;;;8.75;;
42724;SDS011;28369;44.046;23.014;2023-03-24T11:04:38;11.40;;;6.60;;
42724;SDS011;28369;44.046;23.014;2023-03-24T11:09:37;7.57;;;6.88;;
42724;SDS011;28369;44.046;23.014;2023-03-24T11:12:05;10.07;;;7.20;;
42724;SDS011;28369;44.046;23.014;2023-03-24T11:14:46;11.07;;;6.78;;
42724;SDS011;28369;44.046;23.014;2023-03-24T11:17:12;7.13;;;5.93;;
42724;SDS011;28369;44.046;23.014;2023-03-24T11:19:49;11.93;;;6.97;;
42724;SDS011;28369;44.046;23.014;2023-03-24T11:22:16;15.55;;;10.20;;
42724;SDS011;28369;44.046;23.014;2023-03-24T11:24:42;7.93;;;6.40;;
42724;SDS011;28369;44.046;23.014;2023-03-24T11:27:08;7.30;;;6.60;;
42724;SDS011;28369;44.046;23.014;2023-03-24T11:29:39;11.27;;;5.35;;
42724;SDS011;28369;44.046;23.014;2023-03-24T11:32:12;7.78;;;5.18;;
42724;SDS011;28369;44.046;23.014;2023-03-24T11:34:45;8.02;;;4.82;;
42724;SDS011;28369;44.046;23.014;2023-03-24T11:37:17;8.15;;;4.60;;
42724;SDS011;28369;44.046;23.014;2023-03-24T11:40:03;6.38;;;4.63;;
42724;SDS011;28369;44.046;23.014;2023-03-24T11:42:31;4.93;;;4.38;;
42724;SDS011;28369;44.046;23.014;2023-03-24T11:44:57;5.78;;;4.63;;
42724;SDS011;28369;44.046;23.014;2023-03-24T11:47:32;4.57;;;4.18;;
42724;SDS011;28369;44.046;23.014;2023-03-24T11:52:51;5.80;;;3.67;;
42724;SDS011;28369;44.046;23.014;2023-03-24T11:55:21;4.05;;;3.75;;
42724;SDS011;28369;44.046;23.014;2023-03-24T11:58:13;5.72;;;4.72;;
42724;SDS011;28369;44.046;23.014;2023-03-24T12:06:29;4.32;;;3.90;;
42724;SDS011;28369;44.046;23.014;2023-03-24T12:14:22;6.75;;;5.18;;
42724;SDS011;28369;44.046;23.014;2023-03-24T12:17:12;3.95;;;3.50;;
42724;SDS011;28369;44.046;23.014;2023-03-24T12:20:02;4.30;;;3.70;;
42724;SDS011;28369;44.046;23.014;2023-03-24T12:38:42;5.80;;;4.20;;
42724;SDS011;28369;44.046;23.014;2023-03-24T12:44:08;3.53;;;3.22;;
42724;SDS011;28369;44.046;23.014;2023-03-24T12:52:22;4.20;;;2.90;;
42724;SDS011;28369;44.046;23.014;2023-03-24T12:55:21;7.50;;;3.38;;
42724;SDS011;28369;44.046;23.014;2023-03-24T12:58:15;5.32;;;4.65;;
42724;SDS011;28369;44.046;23.014;2023-03-24T13:00:57;4.70;;;3.90;;
42724;SDS011;28369;44.046;23.014;2023-03-24T13:03:36;4.88;;;3.10;;
42724;SDS011;28369;44.046;23.014;2023-03-24T13:09:02;3.60;;;3.30;;
42724;SDS011;28369;44.046;23.014;2023-03-24T13:11:32;3.70;;;3.40;;
42724;SDS011;28369;44.046;23.014;2023-03-24T13:14:03;7.00;;;3.28;;
42724;SDS011;28369;44.046;23.014;2023-03-24T13:16:36;4.22;;;3.60;;
42724;SDS011;28369;44.046;23.014;2023-03-24T13:19:03;3.58;;;3.28;;
42724;SDS011;28369;44.046;23.014;2023-03-24T13:21:38;7.90;;;3.70;;
42724;SDS011;28369;44.046;23.014;2023-03-24T13:24:08;3.78;;;3.40;;
42724;SDS011;28369;44.046;23.014;2023-03-24T13:26:37;5.45;;;3.83;;
42724;SDS011;28369;44.046;23.014;2023-03-24T13:32:24;4.40;;;4.00;;
42724;SDS011;28369;44.046;23.014;2023-03-24T13:34:36;4.60;;;3.75;;
42724;SDS011;28369;44.046;23.014;2023-03-24T13:37:51;3.60;;;3.30;;
42724;SDS011;28369;44.046;23.014;2023-03-24T13:40:00;4.38;;;3.97;;
42724;SDS011;28369;44.046;23.014;2023-03-24T13:42:32;6.18;;;3.85;;
42724;SDS011;28369;44.046;23.014;2023-03-24T13:45:02;8.00;;;4.13;;
42724;SDS011;28369;44.046;23.014;2023-03-24T13:50:20;4.45;;;4.05;;
42724;SDS011;28369;44.046;23.014;2023-03-24T13:52:47;4.35;;;3.72;;
42724;SDS011;28369;44.046;23.014;2023-03-24T13:55:15;5.63;;;3.70;;
42724;SDS011;28369;44.046;23.014;2023-03-24T14:00:23;4.53;;;3.97;;
42724;SDS011;28369;44.046;23.014;2023-03-24T14:02:51;10.23;;;4.00;;
42724;SDS011;28369;44.046;23.014;2023-03-24T14:15:30;6.88;;;3.72;;
42724;SDS011;28369;44.046;23.014;2023-03-24T14:23:24;8.07;;;5.97;;
42724;SDS011;28369;44.046;23.014;2023-03-24T14:25:56;7.32;;;4.53;;
42724;SDS011;28369;44.046;23.014;2023-03-24T14:31:21;5.82;;;3.30;;
42724;SDS011;28369;44.046;23.014;2023-03-24T14:36:27;4.60;;;3.88;;
42724;SDS011;28369;44.046;23.014;2023-03-24T14:41:59;3.85;;;3.53;;
42724;SDS011;28369;44.046;23.014;2023-03-24T14:47:08;3.42;;;3.15;;
42724;SDS011;28369;44.046;23.014;2023-03-24T14:49:35;4.72;;;3.03;;
42724;SDS011;28369;44.046;23.014;2023-03-24T14:52:11;5.00;;;3.00;;
42724;SDS011;28369;44.046;23.014;2023-03-24T15:05:42;5.43;;;3.97;;
42724;SDS011;28369;44.046;23.014;2023-03-24T15:08:19;5.45;;;4.03;;
42724;SDS011;28369;44.046;23.014;2023-03-24T15:10:51;4.07;;;3.33;;
42724;SDS011;28369;44.046;23.014;2023-03-24T15:16:00;4.38;;;3.90;;
42724;SDS011;28369;44.046;23.014;2023-03-24T15:18:30;4.93;;;2.92;;
42724;SDS011;28369;44.046;23.014;2023-03-24T15:20:56;5.70;;;3.15;;
42724;SDS011;28369;44.046;23.014;2023-03-24T15:23:23;3.58;;;2.88;;
42724;SDS011;28369;44.046;23.014;2023-03-24T15:25:51;4.97;;;2.90;;
42724;SDS011;28369;44.046;23.014;2023-03-24T15:28:18;4.90;;;2.90;;
42724;SDS011;28369;44.046;23.014;2023-03-24T15:30:51;6.25;;;2.63;;
42724;SDS011;28369;44.046;23.014;2023-03-24T15:33:17;2.72;;;2.50;;
42724;SDS011;28369;44.046;23.014;2023-03-24T15:35:45;3.13;;;2.70;;
42724;SDS011;28369;44.046;23.014;2023-03-24T15:38:18;2.47;;;2.20;;
42724;SDS011;28369;44.046;23.014;2023-03-24T15:40:59;2.50;;;2.30;;
42724;SDS011;28369;44.046;23.014;2023-03-24T15:43:27;6.22;;;4.43;;
42724;SDS011;28369;44.046;23.014;2023-03-24T15:46:23;5.30;;;4.30;;
42724;SDS011;28369;44.046;23.014;2023-03-24T15:48:52;20.45;;;3.97;;
42724;SDS011;28369;44.046;23.014;2023-03-24T15:51:19;3.95;;;3.30;;
42724;SDS011;28369;44.046;23.014;2023-03-24T15:54:13;11.10;;;4.50;;
42724;SDS011;28369;44.046;23.014;2023-03-24T15:56:57;4.53;;;3.30;;
42724;SDS011;28369;44.046;23.014;2023-03-24T15:59:46;17.77;;;13.32;;
42724;SDS011;28369;44.046;23.014;2023-03-24T16:07:55;5.78;;;3.78;;
42724;SDS011;28369;44.046;23.014;2023-03-24T16:16:07;13.30;;;7.15;;
42724;SDS011;28369;44.046;23.014;2023-03-24T16:18:38;14.55;;;8.95;;
42724;SDS011;28369;44.046;23.014;2023-03-24T16:23:55;12.93;;;5.90;;
42724;SDS011;28369;44.046;23.014;2023-03-24T16:26:22;32.20;;;11.80;;
42724;SDS011;28369;44.046;23.014;2023-03-24T16:28:59;18.80;;;8.80;;
42724;SDS011;28369;44.046;23.014;2023-03-24T16:31:37;14.07;;;5.22;;
42724;SDS011;28369;44.046;23.014;2023-03-24T16:34:02;11.10;;;4.30;;
42724;SDS011;28369;44.046;23.014;2023-03-24T16:36:28;11.43;;;5.82;;
42724;SDS011;28369;44.046;23.014;2023-03-24T16:38:54;14.80;;;7.18;;
42724;SDS011;28369;44.046;23.014;2023-03-24T16:41:22;14.20;;;6.50;;
42724;SDS011;28369;44.046;23.014;2023-03-24T16:43:48;24.27;;;6.32;;
42724;SDS011;28369;44.046;23.014;2023-03-24T16:46:15;35.08;;;8.65;;
42724;SDS011;28369;44.046;23.014;2023-03-24T16:48:42;34.60;;;9.38;;
42724;SDS011;28369;44.046;23.014;2023-03-24T16:51:12;38.90;;;13.20;;
42724;SDS011;28369;44.046;23.014;2023-03-24T16:53:39;57.47;;;17.50;;
42724;SDS011;28369;44.046;23.014;2023-03-24T16:56:05;33.53;;;11.85;;
42724;SDS011;28369;44.046;23.014;2023-03-24T16:58:32;38.55;;;18.98;;
42724;SDS011;28369;44.046;23.014;2023-03-24T17:00:57;60.30;;;27.00;;
42724;SDS011;28369;44.046;23.014;2023-03-24T17:03:24;48.40;;;29.48;;
42724;SDS011;28369;44.046;23.014;2023-03-24T17:05:53;49.60;;;24.30;;
42724;SDS011;28369;44.046;23.014;2023-03-24T17:08:20;71.80;;;35.20;;
42724;SDS011;28369;44.046;23.014;2023-03-24T17:10:46;88.78;;;46.42;;
42724;SDS011;28369;44.046;23.014;2023-03-24T17:13:16;101.90;;;41.33;;
42724;SDS011;28369;44.046;23.014;2023-03-24T17:15:43;37.97;;;16.58;;
42724;SDS011;28369;44.046;23.014;2023-03-24T17:18:09;31.55;;;15.35;;
42724;SDS011;28369;44.046;23.014;2023-03-24T17:20:35;32.35;;;14.68;;
42724;SDS011;28369;44.046;23.014;2023-03-24T17:23:03;25.23;;;11.98;;
42724;SDS011;28369;44.046;23.014;2023-03-24T17:25:30;20.92;;;11.00;;
42724;SDS011;28369;44.046;23.014;2023-03-24T17:27:56;17.42;;;8.80;;
42724;SDS011;28369;44.046;23.014;2023-03-24T17:30:22;26.38;;;9.43;;
42724;SDS011;28369;44.046;23.014;2023-03-24T17:32:49;23.50;;;8.60;;
42724;SDS011;28369;44.046;23.014;2023-03-24T17:35:16;17.52;;;8.05;;
42724;SDS011;28369;44.046;23.014;2023-03-24T17:37:43;15.02;;;7.95;;
42724;SDS011;28369;44.046;23.014;2023-03-24T17:40:11;15.20;;;7.80;;
42724;SDS011;28369;44.046;23.014;2023-03-24T17:42:38;16.48;;;8.43;;
42724;SDS011;28369;44.046;23.014;2023-03-24T17:45:05;20.40;;;8.65;;
42724;SDS011;28369;44.046;23.014;2023-03-24T17:47:33;21.85;;;11.20;;
42724;SDS011;28369;44.046;23.014;2023-03-24T17:49:59;22.83;;;10.73;;
42724;SDS011;28369;44.046;23.014;2023-03-24T17:52:24;27.48;;;12.35;;
42724;SDS011;28369;44.046;23.014;2023-03-24T17:54:50;35.75;;;15.38;;
42724;SDS011;28369;44.046;23.014;2023-03-24T17:57:15;31.45;;;14.05;;
42724;SDS011;28369;44.046;23.014;2023-03-24T17:59:41;22.50;;;10.88;;
42724;SDS011;28369;44.046;23.014;2023-03-24T18:02:08;14.52;;;10.15;;
42724;SDS011;28369;44.046;23.014;2023-03-24T18:04:36;35.05;;;20.25;;
42724;SDS011;28369;44.046;23.014;2023-03-24T18:07:02;45.78;;;39.88;;
42724;SDS011;28369;44.046;23.014;2023-03-24T18:09:30;48.47;;;36.88;;
42724;SDS011;28369;44.046;23.014;2023-03-24T18:11:56;18.45;;;11.00;;
42724;SDS011;28369;44.046;23.014;2023-03-24T18:14:22;22.77;;;9.18;;
42724;SDS011;28369;44.046;23.014;2023-03-24T18:16:48;18.33;;;7.60;;
42724;SDS011;28369;44.046;23.014;2023-03-24T18:19:13;15.38;;;7.57;;
42724;SDS011;28369;44.046;23.014;2023-03-24T18:21:39;18.70;;;10.90;;
42724;SDS011;28369;44.046;23.014;2023-03-24T18:24:05;13.88;;;6.75;;
42724;SDS011;28369;44.046;23.014;2023-03-24T18:26:31;7.30;;;4.35;;
42724;SDS011;28369;44.046;23.014;2023-03-24T18:28:57;12.98;;;5.07;;
42724;SDS011;28369;44.046;23.014;2023-03-24T18:31:23;13.07;;;6.15;;
42724;SDS011;28369;44.046;23.014;2023-03-24T18:33:51;15.80;;;6.53;;
42724;SDS011;28369;44.046;23.014;2023-03-24T20:49:27;19.30;;;11.50;;
42724;SDS011;28369;44.046;23.014;2023-03-24T20:51:53;15.43;;;10.60;;
42724;SDS011;28369;44.046;23.014;2023-03-24T20:54:22;14.70;;;10.90;;
42724;SDS011;28369;44.046;23.014;2023-03-24T20:59:55;26.30;;;12.73;;
42724;SDS011;28369;44.046;23.014;2023-03-24T21:19:13;22.02;;;11.43;;
42724;SDS011;28369;44.046;23.014;2023-03-24T21:21:53;15.55;;;11.77;;
42724;SDS011;28369;44.046;23.014;2023-03-24T21:56:42;11.30;;;8.60;;
42724;SDS011;28369;44.046;23.014;2023-03-24T22:02:09;10.68;;;9.05;;
42724;SDS011;28369;44.046;23.014;2023-03-24T22:04:50;13.50;;;9.02;;